Latest Coastal Weather Observations for Cape Grim

IDT60701

Issued at 1:55 pm EST Friday 25 April 2014 (issued every 10 minutes, with the page automatically refreshed every 10 minutes)

About coastal observations | Map of coastal stations | Coastal observations for TAS | Marine services | Other Formats
Station Details ID: 091331 Name: CAPE GRIM Lat: -40.68 Lon: 144.69 Height: 86.0 m
Data from the previous 72 hours. | See also: Recent months for locations in Tasmania
Date/Time
EST
Temp

°C
Wind Pressure Rain
since 9am
mm
Weather Cloud Vis
km
Sea
Height
m
Swell
Dir
 
Speed
knots
Gust
knots
hPa Trend Height
m
Period
s
Dir
25/01:30pm 14.0 N 17 21 1014.8 - 0.0 - Cloudy - - - - -
25/01:00pm 14.3 N 18 22 1015.4 - 0.0 - Cloudy - - - - -
25/12:30pm 14.9 N 16 20 1015.9 - 0.0 - Cloudy - - - - -
25/12:00pm 14.7 N 18 22 1017.4 - 0.0 - Mostly cloudy - - - - -
25/11:30am 15.3 N 17 21 1017.2 - 0.0 - Cloudy - - - - -
25/11:00am 13.7 NNW 12 16 1018.0 - 0.0 - Partly cloudy - - - - -
25/10:30am 13.7 N 14 18 1018.2 - 0.0 - Cloudy - - - - -
25/10:00am 13.5 N 13 16 1018.5 - 0.0 - Cloudy - - - - -
25/09:30am 13.3 N 11 15 1018.7 - 0.0 - Cloudy - - - - -
25/09:00am 12.9 NNW 11 16 1019.8 - 1.2 - Mostly cloudy - - - - -
25/08:30am 12.5 N 11 14 1019.2 - 1.2 - Partly cloudy - - - - -
25/08:00am 12.4 NNW 10 13 1019.4 - 1.2 - Partly cloudy - - - - -
25/07:30am 11.8 NNW 13 16 1019.3 - 1.2 - Partly cloudy - - - - -
25/07:00am 11.4 N 11 14 1019.1 - 1.2 - Partly cloudy - - - - -
25/06:30am 12.2 NNW 11 14 1019.2 - 1.2 - Cloudy - - - - -
25/06:00am 12.3 NNW 11 14 1020.0 - 1.2 - Cloudy - - - - -
25/05:30am 12.2 NNW 9 11 1019.3 - 1.2 - Cloudy - - - - -
25/05:00am 12.2 NW 9 12 1019.4 - 1.2 - Cloudy - - - - -
25/04:30am 12.2 NW 9 13 1019.3 - 1.2 - Cloudy - - - - -
25/04:00am 12.0 NW 9 12 1019.2 - 1.2 - Cloudy - - - - -
25/03:30am 12.0 NW 8 11 1019.3 - 1.2 - Partly cloudy - - - - -
25/03:00am 11.8 WNW 8 11 1020.1 - 1.2 - Mostly cloudy - - - - -
25/02:30am 12.2 WSW 6 9 1019.5 - 1.2 - Partly cloudy - - - - -
25/02:00am 11.9 W 7 11 1019.8 - 1.2 - Partly cloudy - - - - -
25/01:30am 11.8 W 5 8 1019.9 - 1.2 - Partly cloudy - - - - -
25/01:00am 12.2 W 8 12 1019.9 - 1.2 - Partly cloudy - - - - -
25/12:30am 12.3 W 9 13 1019.7 - 1.2 - Partly cloudy - - - - -
25/12:00am 12.1 W 8 14 1020.6 - 1.2 - Cloudy - - - - -
 
Date/Time
EST
Temp

°C
Wind Pressure Rain
since 9am
mm
Weather Cloud Vis
km
Sea
Height
m
Swell
Dir
 
Speed
knots
Gust
knots
hPa Trend Height
m
Period
s
Dir
24/11:30pm 11.9 W 8 12 1019.9 - 1.2 - Partly cloudy - - - - -
24/11:00pm 11.5 WSW 7 11 1020.1 - 1.2 - Partly cloudy - - - - -
24/10:30pm 11.6 WSW 10 17 1020.1 - 1.2 - Partly cloudy - - - - -
24/10:00pm 11.8 WSW 11 19 1020.0 - 1.2 - Partly cloudy - - - - -
24/09:30pm 11.5 WSW 11 20 1019.9 - 1.2 - Partly cloudy - - - - -
24/09:00pm 11.5 SW 18 23 1020.4 - 1.2 - Cloudy - - - - -
24/08:30pm 11.8 WSW 12 20 1019.1 - 1.2 - Partly cloudy - - - - -
24/08:00pm 11.5 WSW 12 21 1018.8 - 1.2 - Partly cloudy - - - - -
24/07:30pm 11.4 SW 18 24 1018.4 - 1.2 - Partly cloudy - - - - -
24/07:15pm 11.5 SW 15 25 1018.4 - 1.2 - Partly cloudy - - - - -
24/07:00pm 11.6 SW 15 24 1018.0 - 1.2 - Partly cloudy - - - - -
24/06:40pm 11.6 SW 15 26 1017.9 - 1.2 - Partly cloudy - - - - -
24/06:30pm 11.6 SW 14 25 1017.7 - 1.2 - Partly cloudy - - - - -
24/06:11pm 11.6 SW 20 30 1017.3 - 1.2 - Partly cloudy - - - - -
24/06:00pm 11.3 SW 21 28 1018.1 - 1.2 - Cloudy - - - - -
24/05:36pm 11.8 WSW 16 26 1016.7 - 1.2 - Partly cloudy - - - - -
24/05:30pm 11.8 SW 19 27 1016.7 - 1.2 - Partly cloudy - - - - -
24/05:00pm 11.5 SW 22 29 1016.3 - 1.2 - Partly cloudy - - - - -
24/04:30pm 11.5 SW 24 32 1015.9 - 1.2 - Partly cloudy - - - - -
24/04:06pm 11.8 SW 20 30 1015.8 - 1.2 - Partly cloudy - - - - -
24/04:00pm 11.8 SW 18 26 1015.7 - 1.2 - Partly cloudy - - - - -
24/03:35pm 11.3 SW 23 34 1015.5 - 1.0 - Partly cloudy - - - - -
24/03:30pm 11.1 SW 24 30 1015.4 - 1.0 - Partly cloudy - - - - -
24/03:00pm 10.2 SW 27 38 1015.9 - 1.0 - Cloudy - - - - -
24/02:45pm 10.8 SW 27 37 1014.8 - 1.0 - Partly cloudy - - - - -
24/02:42pm 11.3 SW 31 37 1014.6 - 1.0 - Partly cloudy - - - - -
24/02:30pm 12.0 SW 19 31 1014.4 - 1.0 - Partly cloudy - - - - -
24/02:09pm 12.2 SW 25 37 1014.3 - 1.0 - Partly cloudy - - - - -
24/02:00pm 11.9 SW 27 35 1014.2 - 1.0 - Partly cloudy - - - - -
24/01:52pm 12.1 SW 25 35 1014.0 - 1.0 - Partly cloudy - - - - -
24/01:36pm 11.8 SW 30 37 1013.9 - 1.0 - Partly cloudy - - - - -
24/01:30pm 11.7 WSW 18 30 1013.7 - 1.0 - Partly cloudy - - - - -
24/01:03pm 11.9 SW 29 40 1013.3 - 1.0 - Partly cloudy - - - - -
24/01:00pm 11.8 SW 29 38 1013.4 - 1.0 - Partly cloudy - - - - -
24/12:30pm 10.3 WSW 23 43 1013.3 - 1.0 - Partly cloudy - - - - -
24/12:13pm 10.8 SW 27 45 1012.9 - 0.0 - Partly cloudy - - - - -
24/12:00pm 11.7 SW 28 35 1013.8 - 0.0 - Mostly cloudy - - - - -
24/11:30am 11.8 SW 26 42 1012.7 - 0.0 - Partly cloudy - - - - -
24/11:00am 12.0 SW 24 41 1012.0 - 0.0 - Partly cloudy - - - - -
24/10:30am 11.8 SW 28 41 1011.4 - 0.0 - Partly cloudy - - - - -
24/10:00am 11.5 WSW 23 40 1010.9 - 0.0 - Partly cloudy - - - - -
24/09:30am 11.5 SW 27 43 1010.3 - 0.0 - Partly cloudy - - - - -
24/09:03am 11.5 SW 31 41 1009.8 - 0.0 - Partly cloudy - - - - -
24/09:00am 11.4 SW 32 39 1010.5 - 11.6 - Mostly cloudy - - - - -
24/08:58am 11.2 SW 33 38 1009.9 - 11.6 - Partly cloudy - - - - -
24/08:41am 11.0 WSW 19 34 1009.7 - 11.6 - Partly cloudy - - - - -
24/08:36am 10.6 WSW 18 40 1009.5 - 11.6 - Partly cloudy - - - - -
24/08:30am 9.7 SW 31 46 1009.5 - 11.6 - Partly cloudy - - - - -
24/08:24am 10.2 SW 34 46 1009.2 - 11.6 - Partly cloudy - - - - -
24/08:00am 11.3 WSW 21 38 1008.6 - 11.6 - Partly cloudy - - - - -
24/07:30am 11.5 WSW 25 39 1007.5 - 11.6 - Partly cloudy - - - - -
24/07:00am 12.0 WSW 25 40 1006.5 - 11.0 - Partly cloudy - - - - -
24/06:30am 12.2 SW 28 42 1006.0 - 11.0 - Partly cloudy - - - - -
24/06:28am 12.5 SW 27 38 1006.0 - 11.0 - Partly cloudy - - - - -
24/06:07am 11.8 W 17 42 1005.8 - 11.0 - Partly cloudy - - - - -
24/06:00am 11.6 WSW 27 42 1006.3 - 10.8 - Mostly cloudy - - - - -
24/05:30am 13.4 WSW 21 45 1004.8 - 10.8 - Partly cloudy - - - - -
24/05:26am 13.3 WSW 19 45 1004.7 - 10.8 - Partly cloudy - - - - -
24/05:21am 13.6 SW 32 45 1004.5 - 10.8 - Partly cloudy - - - - -
24/05:00am 13.3 W 20 31 1004.4 - 10.8 - Partly cloudy - - - - -
24/04:33am 13.2 W 18 29 1004.1 - 10.8 - Partly cloudy - - - - -
24/04:30am 13.2 W 18 27 1004.1 - 10.8 - Partly cloudy - - - - -
24/04:00am 11.9 W 19 30 1004.3 - 10.4 - Partly cloudy - - - - -
24/03:39am 12.0 WSW 17 32 1004.1 - 9.4 - Partly cloudy - - - - -
24/03:30am 11.7 WSW 20 32 1003.9 - 9.0 - Partly cloudy - - - - -
24/03:26am 11.9 SW 22 32 1003.8 - 8.8 - Partly cloudy - - - - -
24/03:25am 11.8 SW 23 32 1003.9 - 8.6 - Partly cloudy - - - - -
24/03:09am 11.4 W 20 32 1004.2 - 7.4 - Partly cloudy - - - - -
24/03:00am 11.0 WSW 22 36 1004.6 - 5.6 - Cloudy - - - - -
24/02:50am 11.1 WSW 20 47 1003.8 - 2.6 - Partly cloudy - - - - -
24/02:46am 12.5 W 35 47 1003.7 - 0.8 - Partly cloudy - - - - -
24/02:30am 15.5 NW 32 43 1003.4 - 0.2 - Partly cloudy - - - - -
24/02:02am 15.3 NW 25 38 1004.1 - 0.2 - Partly cloudy - - - - -
24/02:00am 15.2 NW 25 34 1004.1 - 0.2 - Partly cloudy - - - - -
24/01:30am 14.8 NW 27 37 1004.7 - 0.0 - Partly cloudy - - - - -
24/01:05am 14.7 NNW 28 38 1005.0 - 0.0 - Partly cloudy - - - - -
24/01:00am 14.7 NNW 30 39 1005.0 - 0.0 - Partly cloudy - - - - -
24/12:30am 15.5 NNW 29 35 1005.6 - 0.0 - Partly cloudy - - - - -
24/12:00am 15.3 NNW 25 35 1007.0 - 0.0 - Cloudy - - - - -
 
Date/Time
EST
Temp

°C
Wind Pressure Rain
since 9am
mm
Weather Cloud Vis
km
Sea
Height
m
Swell
Dir
 
Speed
knots
Gust
knots
hPa Trend Height
m
Period
s
Dir
23/11:30pm 15.3 NNW 27 33 1007.0 - 0.0 - Partly cloudy - - - - -
23/11:00pm 15.0 NNW 26 31 1007.5 - 0.0 - Partly cloudy - - - - -
23/10:41pm 15.0 NNW 24 34 1007.8 - 0.0 - Partly cloudy - - - - -
23/10:30pm 14.9 NNW 26 32 1007.9 - 0.0 - Partly cloudy - - - - -
23/10:01pm 15.0 NW 20 30 1008.4 - 0.0 - Partly cloudy - - - - -
23/10:00pm 15.2 NW 20 27 1008.4 - 0.0 - Partly cloudy - - - - -
23/09:30pm 14.9 NNW 24 29 1008.8 - 0.0 - Partly cloudy - - - - -
23/09:00pm 14.8 NNW 23 29 1009.8 - 0.0 - Cloudy - - - - -
23/08:30pm 14.8 NNW 21 28 1009.3 - 0.0 - Partly cloudy - - - - -
23/08:00pm 14.8 NNW 21 28 1009.6 - 0.0 - Partly cloudy - - - - -
23/07:30pm 14.7 NNW 23 28 1009.9 - 0.0 - Partly cloudy - - - - -
23/07:06pm 14.8 NW 20 30 1009.9 - 0.0 - Partly cloudy - - - - -
23/07:00pm 14.8 NW 20 29 1010.0 - 0.0 - Partly cloudy - - - - -
23/06:30pm 14.8 NNW 20 28 1010.0 - 0.0 - Partly cloudy - - - - -
23/06:00pm 14.7 NW 20 27 1010.9 - 0.0 - Cloudy - - - - -
23/05:50pm 14.6 NW 20 30 1010.3 - 0.0 - Partly cloudy - - - - -
23/05:30pm 14.5 NW 20 25 1010.3 - 0.0 - Partly cloudy - - - - -
23/05:00pm 14.8 NW 19 26 1010.4 - 0.0 - Partly cloudy - - - - -
23/04:30pm 14.8 NW 18 24 1010.6 - 0.0 - Partly cloudy - - - - -
23/04:00pm 15.3 NW 17 23 1010.9 - 0.0 - Partly cloudy - - - - -
23/03:30pm 14.7 NW 16 23 1011.1 - 0.0 - Partly cloudy - - - - -
23/03:00pm 15.7 WNW 16 21 1012.0 - 0.0 - Mostly cloudy - - - - -
23/02:30pm 15.1 WNW 16 22 1011.4 - 0.0 - Partly cloudy - - - - -
23/02:00pm 15.8 WNW 16 22 1011.7 - 0.0 - - - - - - -
23/01:30pm 16.1 WNW 15 19 1011.9 - 0.0 - Partly cloudy - - - - -
23/01:00pm 15.2 NW 15 19 1012.4 - 0.0 - Partly cloudy - - - - -
23/12:30pm 14.4 NNW 14 19 1012.9 - 0.0 - Partly cloudy - - - - -
23/12:00pm 14.9 NNW 15 19 1014.2 - 0.0 - Partly cloudy - - - - -
23/11:30am 14.7 NNW 14 18 1013.9 - 0.0 - - - - - - -
23/11:00am 15.1 NNW 15 20 1014.2 - 0.0 - Partly cloudy - - - - -
23/10:30am 14.8 NNW 15 18 1014.4 - 0.0 - Partly cloudy - - - - -
23/10:00am 14.6 NNW 13 16 1014.3 - 0.0 - Partly cloudy - - - - -
23/09:30am 14.6 N 11 15 1014.6 - 0.0 - Partly cloudy - - - - -
23/09:00am 13.7 N 8 14 1015.5 - 1.2 - Cloudy - - - - -
23/08:30am 14.2 N 6 8 1014.8 - 1.2 - Partly cloudy - - - - -
23/08:00am 13.6 NW 8 11 1014.9 - 1.2 - Partly cloudy - - - - -
23/07:30am 13.3 NW 7 8 1014.7 - 1.2 - Cloudy - - - - -
23/07:00am 12.8 WNW 7 9 1014.7 - 1.2 - Partly cloudy - - - - -
23/06:30am 13.2 WNW 8 11 1014.6 - 1.2 - Partly cloudy - - - - -
23/06:00am 13.0 W 8 10 1015.3 - 1.2 - Mostly clear - - - - -
23/05:30am 13.0 W 8 11 1014.6 - 1.2 - Partly cloudy - - - - -
23/05:00am 12.5 W 6 8 1014.7 - 1.2 - Partly cloudy - - - - -
23/04:30am 13.1 W 6 8 1014.6 - 1.2 - Partly cloudy - - - - -
23/04:00am 12.6 W 8 10 1014.7 - 1.2 - Partly cloudy - - - - -
23/03:30am 12.1 WNW 7 10 1014.6 - 1.2 - Partly cloudy - - - - -
23/03:00am 13.1 W 6 11 1015.5 - 1.2 - Mostly cloudy - - - - -
23/02:30am 12.4 WSW 4 6 1015.1 - 1.2 - Partly cloudy - - - - -
23/02:00am 13.3 WSW 6 11 1015.3 - 1.0 - Partly cloudy - - - - -
23/01:30am 13.4 W 7 11 1015.4 - 1.0 - Partly cloudy - - - - -
23/01:00am 13.6 W 8 13 1015.5 - 1.0 - Cloudy - - - - -
23/12:30am 13.3 W 9 13 1015.6 - 1.0 - Partly cloudy - - - - -
23/12:00am 13.1 W 8 11 1016.3 - 1.0 - Partly cloudy - - - - -
 
Date/Time
EST
Temp

°C
Wind Pressure Rain
since 9am
mm
Weather Cloud Vis
km
Sea
Height
m
Swell
Dir
 
Speed
knots
Gust
knots
hPa Trend Height
m
Period
s
Dir
22/11:30pm 12.2 WSW 8 14 1015.6 - 1.0 - Partly cloudy - - - - -
22/11:00pm 13.6 W 10 15 1015.7 - 0.6 - Partly cloudy - - - - -
22/10:30pm 12.9 W 8 13 1015.8 - 0.6 - Partly cloudy - - - - -
22/10:06pm 13.1 W 15 29 1015.8 - 0.2 - Partly cloudy - - - - -
22/10:00pm 14.0 W 11 20 1015.8 - 0.2 - Partly cloudy - - - - -
22/09:30pm 13.9 W 11 19 1015.6 - 0.2 - Partly cloudy - - - - -
22/09:00pm 13.9 W 12 22 1016.1 - 0.2 - Mostly cloudy - - - - -
22/08:30pm 13.7 SW 12 22 1015.1 - 0.2 - Partly cloudy - - - - -
22/08:00pm 14.5 W 13 21 1014.9 - 0.2 - - - - - - -
22/07:30pm 14.1 W 13 19 1014.8 - 0.2 - Partly cloudy - - - - -
22/07:00pm 13.7 W 15 22 1014.7 - 0.0 - Partly cloudy - - - - -
22/06:30pm 14.1 W 15 20 1014.2 - 0.0 - Partly cloudy - - - - -
22/06:00pm 13.8 W 10 16 1014.6 - 0.0 - Cloudy - - - - -
22/05:30pm 14.4 W 13 19 1013.6 - 0.0 - Partly cloudy - - - - -
22/05:00pm 14.5 W 13 20 1013.4 - 0.0 - Partly cloudy - - - - -
22/04:30pm 14.6 W 14 22 1013.2 - 0.0 - Partly cloudy - - - - -
22/04:00pm 14.7 WSW 11 23 1013.1 - 0.0 - Partly cloudy - - - - -
22/03:30pm 14.9 W 11 20 1013.0 - 0.0 - - - - - - -
22/03:00pm 14.6 WSW 12 22 1013.5 - 0.0 - Mostly clear - - - - -
22/02:30pm 14.8 WSW 12 22 1012.7 - 0.0 - Partly cloudy - - - - -
22/02:00pm 15.1 W 12 18 1012.5 - 0.0 - Partly cloudy - - - - -

Other Formats:

Comma delimited format used in spreadsheet applications
http://www.bom.gov.au/fwo/IDT60701/IDT60701.95954.axf

JavaScript Object Notation format (JSON) in row-major order
http://www.bom.gov.au/fwo/IDT60701/IDT60701.95954.json